createdAt,value
2018-04-02T00:00:10.953Z,21.60
2018-04-02T00:01:11.098Z,21.30
2018-04-02T00:02:11.246Z,21.40
2018-04-02T00:03:11.390Z,21.80
2018-04-02T00:04:11.538Z,22.00
2018-04-02T00:05:11.683Z,21.40
2018-04-02T00:06:11.829Z,21.60
2018-04-02T00:07:11.977Z,21.70
2018-04-02T00:08:12.124Z,21.30
2018-04-02T00:09:12.278Z,20.90
2018-04-02T00:10:12.409Z,21.40
2018-04-02T00:11:12.555Z,20.80
2018-04-02T00:12:12.702Z,20.90
2018-04-02T00:13:12.850Z,21.20
2018-04-02T00:14:12.995Z,21.50
2018-04-02T00:15:13.148Z,20.60
2018-04-02T00:16:13.286Z,20.20
2018-04-02T00:17:13.437Z,20.00
2018-04-02T00:18:13.579Z,21.10
2018-04-02T00:19:13.736Z,21.40
2018-04-02T00:20:13.868Z,21.50
2018-04-02T00:21:14.016Z,20.50
2018-04-02T00:22:14.160Z,21.10
2018-04-02T00:23:14.307Z,20.70
2018-04-02T00:24:14.454Z,19.80
2018-04-02T00:25:14.605Z,21.10
2018-04-02T00:26:14.753Z,20.50
2018-04-02T00:27:14.901Z,20.70
2018-04-02T00:28:15.043Z,21.50
2018-04-02T00:29:15.193Z,20.70
2018-04-02T00:30:15.335Z,20.40
2018-04-02T00:31:15.483Z,20.10
2018-04-02T00:32:15.636Z,20.90
2018-04-02T00:33:15.776Z,20.20
2018-04-02T00:34:15.924Z,19.90
2018-04-02T00:35:16.069Z,19.30
2018-04-02T00:36:16.215Z,20.30
2018-04-02T00:37:16.363Z,20.00
2018-04-02T00:38:16.505Z,19.70
2018-04-02T00:39:16.652Z,19.90
2018-04-02T00:40:16.798Z,20.60
2018-04-02T00:41:16.943Z,20.90
2018-04-02T00:42:17.090Z,20.40
2018-04-02T00:43:17.236Z,20.00
2018-04-02T00:44:17.382Z,20.70
2018-04-02T00:45:17.532Z,21.00
2018-04-02T00:46:17.674Z,20.80
2018-04-02T00:47:17.820Z,20.50
2018-04-02T00:48:17.965Z,20.60
2018-04-02T00:49:18.113Z,20.90
2018-04-02T00:50:18.259Z,20.70
2018-04-02T00:51:18.406Z,21.80
2018-04-02T00:52:18.553Z,21.50
2018-04-02T00:53:18.698Z,21.00
2018-04-02T00:54:18.847Z,20.50
2018-04-02T00:55:18.995Z,20.50
2018-04-02T00:56:19.141Z,20.60
2018-04-02T00:57:19.505Z,20.20
2018-04-02T00:58:19.437Z,20.60
2018-04-02T00:59:19.581Z,20.60
2018-04-02T01:00:19.725Z,20.20
2018-04-02T01:01:19.877Z,20.50
2018-04-02T01:02:20.023Z,20.20
2018-04-02T01:03:20.169Z,20.10
2018-04-02T01:04:20.315Z,20.70
2018-04-02T01:05:20.472Z,20.00
2018-04-02T01:06:20.609Z,19.10
2018-04-02T01:07:20.760Z,19.80
2018-04-02T01:08:20.906Z,20.80
2018-04-02T01:09:21.051Z,20.20
2018-04-02T01:10:21.199Z,20.10
2018-04-02T01:11:21.345Z,19.80
2018-04-02T01:12:21.492Z,20.40
2018-04-02T01:13:21.640Z,20.90
2018-04-02T01:14:21.787Z,20.90
2018-04-02T01:15:21.933Z,21.20
2018-04-02T01:16:22.078Z,20.80
2018-04-02T01:17:22.229Z,20.40
2018-04-02T01:18:22.385Z,21.70
2018-04-02T01:19:22.522Z,21.20
2018-04-02T01:20:22.669Z,21.40
2018-04-02T01:21:22.814Z,20.90
2018-04-02T01:22:22.961Z,21.40
2018-04-02T01:23:23.108Z,22.00
2018-04-02T01:24:23.254Z,22.50
2018-04-02T01:25:23.402Z,21.30
2018-04-02T01:26:23.550Z,20.90
2018-04-02T01:27:23.698Z,21.60
2018-04-02T01:28:23.843Z,21.70
2018-04-02T01:29:23.990Z,21.10
2018-04-02T01:30:24.141Z,21.50
2018-04-02T01:31:24.285Z,21.30
2018-04-02T01:32:24.433Z,22.30
2018-04-02T01:33:24.578Z,21.40
2018-04-02T01:34:24.730Z,21.50
2018-04-02T01:35:24.875Z,21.10
2018-04-02T01:36:25.021Z,21.00
2018-04-02T01:37:25.167Z,20.70
2018-04-02T01:38:25.313Z,20.60
2018-04-02T01:39:25.475Z,21.30
2018-04-02T01:40:25.605Z,21.40
2018-04-02T01:41:25.750Z,21.40
2018-04-02T01:42:25.897Z,22.20
2018-04-02T01:43:26.044Z,21.30
2018-04-02T01:44:26.188Z,22.10
2018-04-02T01:45:26.339Z,22.10
2018-04-02T01:46:26.494Z,22.20
2018-04-02T01:47:26.668Z,22.20
2018-04-02T01:48:26.782Z,22.30
2018-04-02T01:49:26.930Z,22.20
2018-04-02T01:50:27.076Z,22.60
2018-04-02T01:51:27.222Z,21.50
2018-04-02T01:52:27.367Z,22.30
2018-04-02T01:53:27.520Z,22.00
2018-04-02T01:54:27.665Z,21.80
2018-04-02T01:55:27.811Z,22.50
2018-04-02T01:56:27.957Z,22.60
2018-04-02T01:57:28.103Z,22.60
2018-04-02T01:58:28.249Z,22.80
2018-04-02T01:59:28.396Z,21.70
2018-04-02T02:00:28.544Z,22.70
2018-04-02T02:01:28.688Z,21.80
2018-04-02T02:02:28.834Z,22.50
2018-04-02T02:03:28.983Z,22.00
2018-04-02T02:04:29.128Z,21.30
2018-04-02T02:05:29.278Z,22.90
2018-04-02T02:06:29.428Z,22.10
2018-04-02T02:07:29.576Z,21.90
2018-04-02T02:08:29.720Z,21.90
2018-04-02T02:09:29.866Z,21.60
2018-04-02T02:10:30.016Z,21.80
2018-04-02T02:11:30.165Z,22.90
2018-04-02T02:12:30.306Z,21.20
2018-04-02T02:13:30.452Z,22.00
2018-04-02T02:14:30.597Z,22.10
2018-04-02T02:15:30.742Z,21.50
2018-04-02T02:16:30.892Z,21.60
2018-04-02T02:17:31.037Z,22.50
2018-04-02T02:18:31.184Z,23.60
2018-04-02T02:19:31.335Z,23.50
2018-04-02T02:20:31.474Z,23.40
2018-04-02T02:21:31.629Z,25.20
2018-04-02T02:22:31.770Z,26.00
2018-04-02T02:23:31.915Z,26.00
2018-04-02T02:24:32.064Z,27.50
2018-04-02T02:25:32.209Z,28.50
2018-04-02T02:26:32.354Z,29.70
2018-04-02T02:27:32.499Z,30.90
2018-04-02T02:28:32.645Z,31.10
2018-04-02T02:29:32.791Z,31.40
2018-04-02T02:30:32.940Z,29.90
2018-04-02T02:31:33.087Z,32.00
2018-04-02T02:32:33.231Z,30.70
2018-04-02T02:33:33.382Z,31.30
2018-04-02T02:34:33.525Z,30.30
2018-04-02T02:35:33.670Z,30.70
2018-04-02T02:36:33.814Z,28.60
2018-04-02T02:37:33.964Z,28.50
2018-04-02T02:38:34.108Z,28.90
2018-04-02T02:39:34.256Z,28.20
2018-04-02T02:40:34.402Z,28.40
2018-04-02T02:41:34.548Z,28.10
2018-04-02T02:42:34.696Z,27.80
2018-04-02T02:43:34.840Z,29.20
2018-04-02T02:44:34.986Z,27.90
2018-04-02T02:45:35.133Z,30.70
2018-04-02T02:46:35.276Z,30.20
2018-04-02T02:47:35.426Z,32.10
2018-04-02T02:48:35.574Z,32.60
2018-04-02T02:49:35.729Z,33.50
2018-04-02T02:50:35.877Z,33.80
2018-04-02T02:51:36.022Z,33.50
2018-04-02T02:52:36.169Z,34.90
2018-04-02T02:53:36.317Z,33.40
2018-04-02T02:54:36.456Z,34.30
2018-04-02T02:55:36.615Z,33.50
2018-04-02T02:56:36.748Z,34.60
2018-04-02T02:57:36.896Z,34.90
2018-04-02T02:58:37.038Z,34.00
2018-04-02T02:59:37.187Z,33.60
2018-04-02T03:00:37.334Z,33.90
2018-04-02T03:01:37.482Z,34.50
2018-04-02T03:02:37.630Z,33.00
2018-04-02T03:03:37.773Z,33.80
2018-04-02T03:04:37.919Z,32.00
2018-04-02T03:05:38.066Z,33.20
2018-04-02T03:06:38.214Z,32.00
2018-04-02T03:07:38.360Z,33.20
2018-04-02T03:08:38.506Z,33.80
2018-04-02T03:09:38.651Z,35.20
2018-04-02T03:10:38.795Z,32.40
2018-04-02T03:11:38.944Z,33.40
2018-04-02T03:12:39.094Z,33.40
2018-04-02T03:13:39.240Z,33.80
2018-04-02T03:14:39.385Z,34.50
2018-04-02T03:15:39.532Z,34.80
2018-04-02T03:16:39.682Z,37.00
2018-04-02T03:17:39.827Z,35.40
2018-04-02T03:18:39.973Z,34.90
2018-04-02T03:19:40.121Z,36.20
2018-04-02T03:20:40.273Z,36.10
2018-04-02T03:21:40.412Z,37.20
2018-04-02T03:22:40.564Z,36.40
2018-04-02T03:23:40.708Z,37.10
2018-04-02T03:24:40.857Z,33.50
2018-04-02T03:25:41.011Z,34.60
2018-04-02T03:26:41.159Z,32.60
2018-04-02T03:27:41.298Z,34.30
2018-04-02T03:28:41.443Z,34.10
2018-04-02T03:29:41.591Z,32.50
2018-04-02T03:30:41.738Z,33.90
2018-04-02T03:31:41.885Z,34.30
2018-04-02T03:32:42.028Z,33.80
2018-04-02T03:33:42.177Z,33.40
2018-04-02T03:34:42.324Z,34.00
2018-04-02T03:35:42.470Z,33.90
2018-04-02T03:36:42.620Z,35.30
2018-04-02T03:37:42.763Z,35.20
2018-04-02T03:38:42.910Z,36.10
2018-04-02T03:39:43.056Z,34.50
2018-04-02T03:40:43.204Z,34.60
2018-04-02T03:41:43.359Z,36.20
2018-04-02T03:42:43.497Z,34.70
2018-04-02T03:43:43.645Z,36.10
2018-04-02T03:44:43.792Z,32.30
2018-04-02T03:45:43.941Z,31.40
2018-04-02T03:46:44.088Z,33.40
2018-04-02T03:47:44.234Z,33.00
2018-04-02T03:48:44.383Z,33.40
2018-04-02T03:49:44.527Z,33.60
2018-04-02T03:50:44.673Z,35.10
2018-04-02T03:51:44.821Z,34.20
2018-04-02T03:52:44.967Z,33.20
2018-04-02T03:53:45.111Z,36.90
2018-04-02T03:54:45.256Z,38.00
2018-04-02T03:55:45.402Z,36.40
2018-04-02T03:56:45.552Z,35.60
2018-04-02T03:57:45.697Z,35.00
2018-04-02T03:58:45.846Z,34.50
2018-04-02T03:59:45.991Z,36.40
2018-04-02T04:00:46.139Z,37.40
2018-04-02T04:01:46.287Z,37.20
2018-04-02T04:02:46.437Z,37.90
2018-04-02T04:03:46.579Z,38.70
2018-04-02T04:04:46.724Z,35.80
2018-04-02T04:05:46.871Z,37.50
2018-04-02T04:06:47.017Z,38.10
2018-04-02T04:07:47.171Z,37.60
2018-04-02T04:08:47.310Z,37.70
2018-04-02T04:09:47.455Z,37.60
2018-04-02T04:10:47.605Z,36.60
2018-04-02T04:11:47.752Z,37.10
2018-04-02T04:12:47.896Z,36.70
2018-04-02T04:13:48.043Z,36.20
2018-04-02T04:14:48.190Z,35.80
2018-04-02T04:15:48.337Z,37.60
2018-04-02T04:16:48.482Z,36.70
2018-04-02T04:17:48.629Z,39.30
2018-04-02T04:18:48.780Z,37.90
2018-04-02T04:19:48.924Z,37.10
2018-04-02T04:20:49.069Z,37.10
2018-04-02T04:21:49.217Z,34.10
2018-04-02T04:22:49.361Z,35.00
2018-04-02T04:23:49.511Z,34.60
2018-04-02T04:24:49.655Z,33.80
2018-04-02T04:25:49.802Z,32.70
2018-04-02T04:26:49.949Z,32.00
2018-04-02T04:27:50.100Z,31.80
2018-04-02T04:28:50.242Z,31.50
2018-04-02T04:29:50.390Z,32.40
2018-04-02T04:30:50.537Z,32.30
2018-04-02T04:31:50.684Z,31.40
2018-04-02T04:32:50.833Z,32.40
2018-04-02T04:33:50.978Z,32.30
2018-04-02T04:34:51.125Z,33.80
2018-04-02T04:35:51.273Z,33.50
2018-04-02T04:36:51.425Z,35.90
2018-04-02T04:37:51.567Z,35.60
2018-04-02T04:38:51.716Z,34.90
2018-04-02T04:39:51.865Z,34.90
2018-04-02T04:40:52.016Z,35.90
2018-04-02T04:41:52.159Z,35.70
2018-04-02T04:42:52.312Z,35.70
2018-04-02T04:43:52.455Z,36.70
2018-04-02T04:44:52.599Z,37.30
2018-04-02T04:45:52.747Z,36.00
2018-04-02T04:46:52.895Z,36.60
2018-04-02T04:47:53.041Z,36.00
2018-04-02T04:48:53.194Z,36.20
2018-04-02T04:49:53.341Z,36.80
2018-04-02T04:50:53.483Z,37.20
2018-04-02T04:51:53.630Z,36.80
2018-04-02T04:52:53.779Z,38.50
2018-04-02T04:53:53.923Z,36.20
2018-04-02T04:54:54.070Z,38.50
2018-04-02T04:55:54.218Z,37.00
2018-04-02T04:56:54.365Z,38.60
2018-04-02T04:57:54.513Z,38.50
2018-04-02T04:58:54.657Z,39.30
2018-04-02T04:59:54.806Z,38.10
2018-04-02T05:00:54.951Z,36.10
2018-04-02T05:01:55.098Z,38.00
2018-04-02T05:02:55.250Z,38.80
2018-04-02T05:03:55.396Z,37.80
2018-04-02T05:04:55.543Z,38.90
2018-04-02T05:05:55.690Z,37.30
2018-04-02T05:06:55.836Z,36.80
2018-04-02T05:07:55.982Z,38.30
2018-04-02T05:08:56.128Z,38.30
2018-04-02T05:09:56.276Z,37.70
2018-04-02T05:10:56.421Z,37.90
2018-04-02T05:11:56.568Z,38.30
2018-04-02T05:12:56.712Z,37.50
2018-04-02T05:13:56.874Z,37.60
2018-04-02T05:14:57.022Z,36.60
2018-04-02T05:15:57.171Z,38.60
2018-04-02T05:16:57.313Z,36.70
2018-04-02T05:17:57.462Z,36.70
2018-04-02T05:18:57.606Z,38.00
2018-04-02T05:19:57.753Z,37.60
2018-04-02T05:20:57.900Z,35.90
2018-04-02T05:21:58.046Z,38.00
2018-04-02T05:22:58.195Z,37.50
2018-04-02T05:23:58.340Z,38.10
2018-04-02T05:24:58.485Z,37.70
2018-04-02T05:25:58.633Z,38.10
2018-04-02T05:26:58.776Z,37.40
2018-04-02T05:27:58.923Z,36.60
2018-04-02T05:28:59.068Z,36.90
2018-04-02T05:29:59.216Z,36.40
2018-04-02T05:30:59.393Z,35.30
2018-04-02T05:31:59.515Z,36.40
2018-04-02T05:32:59.668Z,36.20
2018-04-02T05:33:59.807Z,36.90
2018-04-02T05:34:59.950Z,35.60
2018-04-02T05:36:00.101Z,35.90
2018-04-02T05:37:00.249Z,35.10
2018-04-02T05:38:00.394Z,34.60
2018-04-02T05:39:00.542Z,35.70
2018-04-02T05:40:00.692Z,34.70
2018-04-02T05:41:00.838Z,36.10
2018-04-02T05:42:00.985Z,34.90
2018-04-02T05:43:01.129Z,33.40
2018-04-02T05:44:01.277Z,34.30
2018-04-02T05:45:01.422Z,35.30
2018-04-02T05:46:01.569Z,33.80
2018-04-02T05:47:01.722Z,33.70
2018-04-02T05:48:01.863Z,35.20
2018-04-02T05:49:02.011Z,34.20
2018-04-02T05:50:02.156Z,33.50
2018-04-02T05:51:02.333Z,34.60
2018-04-02T05:52:02.445Z,33.80
2018-04-02T05:53:02.595Z,33.70
2018-04-02T05:54:02.739Z,34.90
2018-04-02T05:55:02.886Z,34.10
2018-04-02T05:56:03.034Z,34.10
2018-04-02T05:57:03.177Z,35.30
2018-04-02T05:58:03.326Z,35.60
2018-04-02T05:59:03.472Z,34.40
2018-04-02T06:00:03.619Z,34.20
2018-04-02T06:01:03.768Z,34.50
2018-04-02T06:02:03.912Z,34.40
2018-04-02T06:03:04.059Z,35.50
2018-04-02T06:04:04.199Z,35.00
2018-04-02T06:05:04.343Z,34.70
2018-04-02T06:06:04.489Z,34.70
2018-04-02T06:07:04.635Z,34.20
2018-04-02T06:08:04.780Z,33.80
2018-04-02T06:09:04.924Z,34.10
2018-04-02T06:10:05.071Z,33.20
2018-04-02T06:11:05.219Z,34.30
2018-04-02T06:12:05.367Z,34.20
2018-04-02T06:13:05.510Z,34.20
2018-04-02T06:14:05.660Z,33.70
2018-04-02T06:15:05.808Z,34.70
2018-04-02T06:16:05.963Z,33.00
2018-04-02T06:17:06.103Z,32.70
2018-04-02T06:18:06.251Z,33.70
2018-04-02T06:19:06.397Z,34.30
2018-04-02T06:20:06.543Z,32.10
2018-04-02T06:21:06.693Z,31.40
2018-04-02T06:22:06.837Z,31.80
2018-04-02T06:23:06.997Z,32.40
2018-04-02T06:24:07.134Z,33.20
2018-04-02T06:25:07.283Z,33.30
2018-04-02T06:26:07.431Z,33.40
2018-04-02T06:27:07.578Z,32.40
2018-04-02T06:28:07.723Z,33.00
2018-04-02T06:29:07.872Z,32.20
2018-04-02T06:30:08.035Z,32.80
2018-04-02T06:31:08.166Z,32.40
2018-04-02T06:32:08.323Z,33.00
2018-04-02T06:33:08.462Z,32.80
2018-04-02T06:34:08.612Z,33.00
2018-04-02T06:35:08.756Z,32.40
2018-04-02T06:36:08.906Z,32.40
2018-04-02T06:37:09.119Z,32.30
2018-04-02T06:38:09.203Z,33.00
2018-04-02T06:39:09.351Z,32.70
2018-04-02T06:40:09.498Z,31.20
2018-04-02T06:41:09.646Z,32.80
2018-04-02T06:42:09.796Z,30.90
2018-04-02T06:43:09.944Z,31.50
2018-04-02T06:44:10.097Z,31.90
2018-04-02T06:45:10.253Z,32.10
2018-04-02T06:46:10.387Z,32.10
2018-04-02T06:47:10.535Z,32.30
2018-04-02T06:48:10.686Z,32.90
2018-04-02T06:49:11.056Z,31.80
2018-04-02T06:50:10.951Z,32.60
2018-04-02T06:51:11.101Z,31.60
2018-04-02T06:52:11.248Z,32.00
2018-04-02T06:53:11.401Z,31.60
2018-04-02T06:54:11.541Z,31.90
2018-04-02T06:55:11.689Z,32.20
2018-04-02T06:56:11.837Z,31.40
2018-04-02T06:57:11.984Z,32.40
2018-04-02T06:58:12.150Z,32.10
2018-04-02T06:59:12.279Z,32.80
2018-04-02T07:00:12.428Z,32.50
2018-04-02T07:01:12.577Z,32.40
2018-04-02T07:02:12.724Z,32.50
2018-04-02T07:03:12.871Z,33.70
2018-04-02T07:04:13.023Z,33.60
2018-04-02T07:05:13.170Z,31.90
2018-04-02T07:06:13.322Z,33.30
2018-04-02T07:07:13.467Z,32.00
2018-04-02T07:08:13.616Z,32.70
2018-04-02T07:09:13.763Z,32.40
2018-04-02T07:10:13.912Z,32.60
2018-04-02T07:11:14.060Z,31.90
2018-04-02T07:12:14.208Z,31.50
2018-04-02T07:13:14.360Z,31.60
2018-04-02T07:14:14.507Z,30.10
2018-04-02T07:15:14.658Z,33.10
2018-04-02T07:16:14.804Z,32.00
2018-04-02T07:17:14.954Z,32.00
2018-04-02T07:18:15.104Z,31.50
2018-04-02T07:19:15.254Z,30.30
2018-04-02T07:20:15.404Z,35.50
2018-04-02T07:21:15.550Z,35.20
2018-04-02T07:22:15.699Z,35.60
2018-04-02T07:23:15.849Z,36.00
2018-04-02T07:24:16.002Z,35.90
2018-04-02T07:25:16.149Z,35.80
2018-04-02T07:26:16.296Z,35.20
2018-04-02T07:27:16.448Z,34.60
2018-04-02T07:28:16.593Z,35.30
2018-04-02T07:29:16.744Z,32.00
2018-04-02T07:30:16.892Z,33.60
2018-04-02T07:31:17.042Z,31.70
2018-04-02T07:32:17.193Z,32.20
2018-04-02T07:33:17.341Z,33.80
2018-04-02T07:34:17.488Z,34.80
2018-04-02T07:35:17.642Z,35.20
2018-04-02T07:36:17.799Z,34.70
2018-04-02T07:37:17.958Z,35.90
2018-04-02T07:38:18.089Z,34.50
2018-04-02T07:39:18.239Z,34.90
2018-04-02T07:40:18.402Z,33.10
2018-04-02T07:41:18.570Z,34.80
2018-04-02T07:42:18.882Z,33.50
2018-04-02T07:43:18.942Z,32.80
2018-04-02T07:44:19.051Z,33.10
2018-04-02T07:45:19.171Z,33.80
2018-04-02T07:46:19.307Z,34.00
2018-04-02T07:47:19.456Z,33.40
2018-04-02T07:48:19.604Z,33.70
2018-04-02T07:49:19.752Z,34.10
2018-04-02T07:50:19.901Z,34.40
2018-04-02T07:51:20.048Z,34.50
2018-04-02T07:52:20.198Z,34.40
2018-04-02T07:53:20.349Z,35.30
2018-04-02T07:54:20.498Z,36.30
2018-04-02T07:55:20.645Z,35.70
2018-04-02T07:56:20.796Z,35.70
2018-04-02T07:57:20.948Z,35.40
2018-04-02T07:58:21.097Z,36.30
2018-04-02T07:59:21.245Z,36.90
2018-04-02T08:00:21.394Z,35.30
2018-04-02T08:01:21.544Z,36.30
2018-04-02T08:02:21.694Z,35.10
2018-04-02T08:03:21.846Z,35.70
2018-04-02T08:04:22.051Z,35.50
2018-04-02T08:05:22.150Z,35.80
2018-04-02T08:06:22.301Z,35.70
2018-04-02T08:07:22.451Z,35.70
2018-04-02T08:08:22.600Z,36.10
2018-04-02T08:09:22.750Z,36.90
2018-04-02T08:10:22.902Z,36.50
2018-04-02T08:11:23.051Z,36.00
2018-04-02T08:12:23.203Z,36.30
2018-04-02T08:13:23.351Z,35.60
2018-04-02T08:14:23.513Z,36.10
2018-04-02T08:15:23.654Z,36.40
2018-04-02T08:16:23.806Z,35.70
2018-04-02T08:17:23.957Z,36.30
2018-04-02T08:18:24.105Z,36.00
2018-04-02T08:19:24.261Z,36.30
2018-04-02T08:20:24.408Z,36.30
2018-04-02T08:21:24.565Z,35.40
2018-04-02T08:22:24.713Z,36.00
2018-04-02T08:23:24.859Z,36.10
2018-04-02T08:24:25.009Z,35.00
2018-04-02T08:25:25.180Z,35.80
2018-04-02T08:26:25.319Z,36.90
2018-04-02T08:27:25.461Z,35.00
2018-04-02T08:28:25.610Z,35.30
2018-04-02T08:29:25.777Z,35.60
2018-04-02T08:30:25.927Z,36.20
2018-04-02T08:31:26.077Z,35.10
2018-04-02T08:32:26.233Z,35.70
2018-04-02T08:33:26.380Z,35.00
2018-04-02T08:34:26.530Z,34.70
2018-04-02T08:35:26.680Z,36.90
2018-04-02T08:36:26.849Z,36.00
2018-04-02T08:37:27.016Z,35.50
2018-04-02T08:38:27.162Z,35.10
2018-04-02T08:39:27.313Z,36.10
2018-04-02T08:40:27.462Z,35.00
2018-04-02T08:41:27.615Z,34.60
2018-04-02T08:42:27.765Z,34.40
2018-04-02T08:43:27.929Z,34.20
2018-04-02T08:44:28.076Z,34.80
2018-04-02T08:45:28.228Z,34.00
2018-04-02T08:46:28.381Z,34.50
2018-04-02T08:47:28.535Z,33.70
2018-04-02T08:48:28.685Z,33.50
2018-04-02T08:49:28.837Z,34.10
2018-04-02T08:50:28.989Z,33.90
2018-04-02T08:51:29.140Z,33.90
2018-04-02T08:52:29.291Z,34.30
2018-04-02T08:53:29.496Z,33.80
2018-04-02T08:54:29.593Z,33.80
2018-04-02T08:55:29.745Z,34.00
2018-04-02T08:56:29.897Z,34.40
2018-04-02T08:57:30.053Z,33.90
2018-04-02T08:58:30.204Z,33.80
2018-04-02T08:59:30.353Z,34.20
2018-04-02T09:00:30.506Z,34.10
2018-04-02T09:01:30.662Z,34.50
2018-04-02T09:02:30.812Z,35.10
2018-04-02T09:03:30.961Z,33.80
2018-04-02T09:04:31.115Z,34.50
2018-04-02T09:05:31.268Z,34.50
2018-04-02T09:06:31.416Z,34.10
2018-04-02T09:07:31.568Z,35.40
2018-04-02T09:08:31.721Z,34.50
2018-04-02T09:09:31.876Z,34.50
2018-04-02T09:10:32.025Z,33.00
2018-04-02T09:11:32.177Z,33.00
2018-04-02T09:12:32.326Z,32.70
2018-04-02T09:13:32.479Z,32.70
2018-04-02T09:14:32.630Z,32.80
2018-04-02T09:15:32.782Z,32.00
2018-04-02T09:16:32.937Z,30.80
2018-04-02T09:17:33.091Z,31.20
2018-04-02T09:18:33.240Z,30.50
2018-04-02T09:19:33.392Z,30.50
2018-04-02T09:20:33.552Z,29.60
2018-04-02T09:21:33.695Z,28.10
2018-04-02T09:22:33.847Z,28.80
2018-04-02T09:23:33.998Z,29.40
2018-04-02T09:24:34.148Z,29.90
2018-04-02T09:25:34.302Z,28.60
2018-04-02T09:26:34.455Z,29.00
2018-04-02T09:27:34.604Z,28.30
2018-04-02T09:28:34.760Z,25.70
2018-04-02T09:29:34.910Z,26.50
2018-04-02T09:30:35.066Z,26.20
2018-04-02T09:31:35.217Z,26.10
2018-04-02T09:32:35.369Z,26.60
2018-04-02T09:33:35.518Z,26.30
2018-04-02T09:34:35.671Z,25.10
2018-04-02T09:35:35.818Z,24.90
2018-04-02T09:36:35.966Z,24.80
2018-04-02T09:37:36.121Z,25.50
2018-04-02T09:38:36.272Z,25.30
2018-04-02T09:39:36.423Z,26.00
2018-04-02T09:40:36.575Z,25.80
2018-04-02T09:41:36.728Z,25.30
2018-04-02T09:42:36.879Z,23.90
2018-04-02T09:43:37.036Z,25.00
2018-04-02T09:44:37.184Z,25.30
2018-04-02T09:45:37.339Z,25.20
2018-04-02T09:46:37.487Z,25.00
2018-04-02T09:47:37.638Z,25.10
2018-04-02T09:48:37.790Z,24.20
2018-04-02T09:49:37.950Z,25.10
2018-04-02T09:50:38.093Z,24.60
2018-04-02T09:51:38.244Z,24.00
2018-04-02T09:52:38.395Z,24.80
2018-04-02T09:53:38.546Z,25.60
2018-04-02T09:54:38.697Z,26.40
2018-04-02T09:55:38.851Z,23.60
2018-04-02T09:56:39.001Z,22.70
2018-04-02T09:57:39.158Z,22.50
2018-04-02T09:58:39.305Z,20.70
2018-04-02T09:59:39.467Z,19.80
2018-04-02T10:00:39.608Z,20.40
2018-04-02T10:01:39.781Z,20.50
2018-04-02T10:02:39.926Z,20.00
2018-04-02T10:03:40.082Z,21.60
2018-04-02T10:04:40.366Z,22.30
2018-04-02T10:05:40.383Z,20.60
2018-04-02T10:06:40.537Z,18.10
2018-04-02T10:07:40.697Z,17.20
2018-04-02T10:08:40.843Z,17.50
2018-04-02T10:09:40.991Z,16.90
2018-04-02T10:10:41.145Z,17.30
2018-04-02T10:11:41.296Z,17.10
2018-04-02T10:12:41.449Z,17.30
2018-04-02T10:13:41.618Z,17.10
2018-04-02T10:14:41.752Z,17.60
2018-04-02T10:15:41.949Z,18.30
2018-04-02T10:16:42.056Z,16.90
2018-04-02T10:17:42.209Z,16.30
2018-04-02T10:18:42.366Z,16.50
2018-04-02T10:19:42.518Z,16.10
2018-04-02T10:20:42.693Z,17.80
2018-04-02T10:21:42.822Z,16.10
2018-04-02T10:22:42.975Z,15.40
2018-04-02T10:23:43.131Z,15.80
2018-04-02T10:24:43.279Z,15.20
2018-04-02T10:25:43.431Z,14.80
2018-04-02T10:26:43.582Z,15.00
2018-04-02T10:27:43.739Z,13.70
2018-04-02T10:28:43.910Z,14.00
2018-04-02T10:29:44.101Z,13.20
2018-04-02T10:30:44.237Z,14.50
2018-04-02T10:31:44.354Z,13.30
2018-04-02T10:32:44.511Z,13.20
2018-04-02T10:33:44.664Z,13.40
2018-04-02T10:34:44.812Z,13.50
2018-04-02T10:35:44.964Z,13.10
2018-04-02T10:36:45.118Z,12.40
2018-04-02T10:37:45.269Z,12.60
2018-04-02T10:38:45.425Z,12.50
2018-04-02T10:39:45.578Z,11.80
2018-04-02T10:40:45.730Z,12.00
2018-04-02T10:41:45.881Z,10.80
2018-04-02T10:42:46.037Z,11.90
2018-04-02T10:43:46.188Z,11.50
2018-04-02T10:44:46.341Z,11.90
2018-04-02T10:45:46.493Z,11.70
2018-04-02T10:46:46.644Z,11.40
2018-04-02T10:47:46.794Z,10.70
2018-04-02T10:48:46.945Z,10.20
2018-04-02T10:49:47.098Z,9.60
2018-04-02T10:50:47.249Z,10.00
2018-04-02T10:51:47.402Z,9.50
2018-04-02T10:52:47.555Z,9.30
2018-04-02T10:53:47.720Z,9.60
2018-04-02T10:54:47.860Z,9.30
2018-04-02T10:55:48.016Z,8.80
2018-04-02T10:56:48.169Z,8.80
2018-04-02T10:57:48.324Z,8.80
2018-04-02T10:58:48.474Z,8.80
2018-04-02T10:59:48.688Z,8.50
2018-04-02T11:00:48.783Z,8.60
2018-04-02T11:01:48.935Z,8.90
2018-04-02T11:02:49.093Z,8.70
2018-04-02T11:03:49.243Z,8.60
2018-04-02T11:04:49.397Z,9.30
2018-04-02T11:05:49.549Z,8.80
2018-04-02T11:06:49.703Z,9.30
2018-04-02T11:07:49.856Z,8.80
2018-04-02T11:08:50.013Z,7.90
2018-04-02T11:09:50.168Z,8.40
2018-04-02T11:10:50.318Z,8.30
2018-04-02T11:11:50.462Z,8.20
2018-04-02T11:12:50.633Z,8.90
2018-04-02T11:13:50.788Z,9.10
2018-04-02T11:14:50.943Z,8.70
2018-04-02T11:15:51.098Z,8.70
2018-04-02T11:16:51.248Z,8.40
2018-04-02T11:17:51.404Z,8.70
2018-04-02T11:18:51.560Z,8.00
2018-04-02T11:19:51.757Z,8.40
2018-04-02T11:20:51.867Z,8.80
2018-04-02T11:21:52.020Z,8.60
2018-04-02T11:22:52.174Z,8.60
2018-04-02T11:23:52.330Z,8.30
2018-04-02T11:24:52.485Z,8.10
2018-04-02T11:25:52.638Z,8.30
2018-04-02T11:26:52.791Z,8.20
2018-04-02T11:27:52.952Z,8.40
2018-04-02T11:28:53.131Z,7.70
2018-04-02T11:29:53.255Z,8.10
2018-04-02T11:30:53.412Z,8.00
2018-04-02T11:31:53.561Z,8.20
2018-04-02T11:32:53.715Z,8.60
2018-04-02T11:33:53.870Z,8.70
2018-04-02T11:34:54.025Z,8.30
2018-04-02T11:35:54.189Z,8.00
2018-04-02T11:36:54.334Z,7.80
2018-04-02T11:37:54.491Z,7.90
2018-04-02T11:38:54.645Z,8.10
2018-04-02T11:39:54.798Z,7.60
2018-04-02T11:40:54.955Z,7.10
2018-04-02T11:41:55.108Z,7.20
2018-04-02T11:42:55.293Z,6.90
2018-04-02T11:43:55.414Z,7.20
2018-04-02T11:44:55.565Z,6.90
2018-04-02T11:45:55.720Z,6.80
2018-04-02T11:46:55.872Z,6.70
2018-04-02T11:47:56.030Z,6.90
2018-04-02T11:48:56.174Z,7.00
2018-04-02T11:49:56.328Z,7.30
2018-04-02T11:50:56.483Z,6.60
2018-04-02T11:51:56.637Z,6.30
2018-04-02T11:52:56.790Z,6.60
2018-04-02T11:53:56.946Z,6.20
2018-04-02T11:54:57.100Z,6.40
2018-04-02T11:55:57.255Z,6.20
2018-04-02T11:56:57.407Z,6.30
2018-04-02T11:57:57.563Z,6.20
2018-04-02T11:58:57.718Z,6.30
2018-04-02T11:59:57.873Z,6.70
2018-04-02T12:00:58.027Z,7.00
2018-04-02T12:01:58.180Z,6.30
2018-04-02T12:02:58.337Z,6.80
2018-04-02T12:03:58.514Z,6.40
2018-04-02T12:04:58.646Z,6.70
2018-04-02T12:05:58.801Z,6.60
2018-04-02T12:06:58.956Z,6.50
2018-04-02T12:07:59.107Z,6.10
2018-04-02T12:08:59.260Z,6.20
2018-04-02T12:09:59.415Z,6.30
2018-04-02T12:10:59.569Z,5.60
2018-04-02T12:11:59.724Z,5.90
2018-04-02T12:12:59.877Z,6.10
2018-04-02T12:14:00.032Z,5.50
2018-04-02T12:15:00.190Z,5.80
2018-04-02T12:16:00.341Z,6.00
2018-04-02T12:17:00.496Z,5.70
2018-04-02T12:18:00.652Z,5.80
2018-04-02T12:19:00.806Z,5.70
2018-04-02T12:20:00.957Z,5.80
2018-04-02T12:21:01.183Z,5.10
2018-04-02T12:22:01.269Z,6.00
2018-04-02T12:23:01.423Z,5.50
2018-04-02T12:24:01.582Z,5.70
2018-04-02T12:25:01.743Z,5.10
2018-04-02T12:26:01.895Z,5.70
2018-04-02T12:27:02.080Z,5.60
2018-04-02T12:28:02.243Z,5.70
2018-04-02T12:29:02.400Z,5.50
2018-04-02T12:30:02.553Z,5.70
2018-04-02T12:31:02.708Z,5.50
2018-04-02T12:32:02.864Z,5.70
2018-04-02T12:33:03.019Z,6.30
2018-04-02T12:34:03.172Z,5.70
2018-04-02T12:35:03.328Z,6.00
2018-04-02T12:36:03.485Z,6.00
2018-04-02T12:37:03.640Z,6.40
2018-04-02T12:38:03.797Z,6.00
2018-04-02T12:39:03.952Z,6.20
2018-04-02T12:40:04.112Z,6.30
2018-04-02T12:41:04.269Z,5.90
2018-04-02T12:42:04.422Z,6.00
2018-04-02T12:43:04.578Z,6.40
2018-04-02T12:44:04.733Z,6.20
2018-04-02T12:45:04.886Z,6.40
2018-04-02T12:46:05.046Z,6.20
2018-04-02T12:47:05.200Z,6.10
2018-04-02T12:48:05.355Z,6.50
2018-04-02T12:49:05.510Z,6.00
2018-04-02T12:50:05.672Z,5.80
2018-04-02T12:51:05.830Z,6.30
2018-04-02T12:52:05.979Z,6.30
2018-04-02T12:53:06.135Z,6.60
2018-04-02T12:54:06.291Z,6.10
2018-04-02T12:55:06.459Z,5.90
2018-04-02T12:56:06.613Z,5.70
2018-04-02T12:57:06.772Z,6.10
2018-04-02T12:58:06.929Z,6.40